메인 페이지
METAR-TAF:

METAR-TAF

공항 :

포트오브스페인, 트리니다드 섬, 트리니다드 토바고

위도: 10-37N, 경도: 061-21W, 고도: 12m

현재 날씨관측

예보는 44분 전, 23:00시(UTC)에 발표되었습니다.
9kt
온도 27°C
습도 74%
기압 1012 hPa
시정 10km 이상
고도 1800ft 상공 구름 조금

METAR: TTPP 222300Z 08009KT 9999 FEW018 27/22 Q1012 NOSIG

시각: 19:44 (23:44 UTC)

예보

예보는 1 시간 44분 전, 22:00시(UTC)에 발표되었습니다.
예보 대상 시간: 23일 00시부터 23일 24시까지 (UTC)
5kt
시정 10km 이상
고도 1600ft 상공 구름 조금
전환 중
23일 12시부터 23일 14시까지 (UTC)
15kt
고도 2000ft 상공 구름 보통
확률 40% :
일시적
23일 18시부터 23일 24시까지 (UTC)
시정: 6000m
고도 1600ft 상공 구름 많음
소나기

TAF: TTPP 222200Z 2300/2324 09005KT 9999 FEW016 BECMG 2312/2314 09015KT SCT020 PROB40 TEMPO 2318/2324 6000 SHRA BKN016

4,000개 이상의 공항 관측 자료 및 예보 (METAR 및 TAF 보고).

지도상에서 검색 가능한 기상관측소가 노란 점과 빨간 점으로 표시되어 있습니다.

기상관측소 명을 보려면 표시 위로 마우스를 이동하세요.

날씨 관측과 예보를 보려면 클릭하세요.

지도 변경 : 확대하려면 엑스 표시가 있는 녹색 버튼, 축소하려면 빼기 표시가 있는 녹색 버튼, 다음 페이지의 지도를 보려면 녹색 화살표를 클릭하세요.


METAR-TAF: